Morris, MN

5:05 PM CST on January 21, 2018 (GMT -0600)
Morris Municipal

Weather History for KMOX - January, 2014

Change the Weather History Date:

Wednesday, January 8, 2014

  Actual Average Record
Temperature  
Mean Temperature -8 °F -  
Max Temperature 1 °F 17 °F 53 °F (2003)
Min Temperature -16 °F 2 °F -16 °F (2014)
Degree Days  
Heating Degree Days 72    
Moisture  
Dew Point -13 °F    
Average Humidity 78    
Maximum Humidity 85    
Minimum Humidity 66    
Precipitation  
Precipitation 0.00 in - - ()
Sea Level Pressure  
Sea Level Pressure 30.34 in    
Wind  
Wind Speed 4 mph (SSE)    
Max Wind Speed 20 mph    
Max Gust Speed 20 mph    
Visibility 10 miles    
Events      
Averages and records for this station are not official NWS values.
T = Trace of Precipitation, MM = Missing Value Source: NWS Daily Summary

Daily Weather History Graph

Daily Weather History Graph

Search for Another Location

Airport or City:

Trip Planner

Search our weather history database for the weather conditions in past years. The results will help you decide how hot, cold, wet, or windy it might be!

Date:

Astronomy

Jan. 08, 2014 Rise Set
Actual Time 8:03 AM CST 4:58 PM CST
Civil Twilight 7:29 AM CST 5:31 PM CST
Nautical Twilight 6:52 AM CST 6:09 PM CST
Astronomical Twilight 6:16 AM CST 6:44 PM CST
Moon 12:00 PM CST (1/8) 12:59 AM CST (1/8)
Length of Visible Light 10h 02m
Length of Day
8h 54m
First Quarter, 56% of the Moon is Illuminated
Jan 8
First Quarter
Jan 15
Full
Jan 23
Last Quarter
Jan 30
New
Feb 6
First Quarter

Hourly Weather History & Observations

Time (CST) Temp. Windchill Dew Point Humidity Pressure Visibility Wind Dir Wind Speed Gust Speed Precip Events Conditions
12:00 AM -11.2 °F -23.0 °F -16.6 °F 77% 30.24 in 10.0 mi NNW 4.6 mph - N/A   Clear
12:20 AM -11.2 °F -20.6 °F -16.6 °F 77% 30.25 in 10.0 mi NNW 3.5 mph - N/A   Clear
12:41 AM -11.2 °F -20.6 °F -16.6 °F 77% 30.26 in 10.0 mi NNW 3.5 mph - N/A   Clear
1:00 AM -13.0 °F - -18.4 °F 77% 30.26 in 10.0 mi Calm Calm - N/A   Clear
1:21 AM -11.2 °F - -16.6 °F 77% 30.27 in 10.0 mi Calm Calm - N/A   Clear
1:40 AM -11.2 °F -20.6 °F -16.6 °F 77% 30.27 in 10.0 mi NW 3.5 mph - N/A   Clear
2:00 AM -13.0 °F - -18.4 °F 77% 30.28 in 10.0 mi Calm Calm - N/A   Clear
2:20 AM -13.0 °F - -18.4 °F 77% 30.29 in 10.0 mi Calm Calm - N/A   Clear
2:41 AM -14.8 °F -24.8 °F -18.4 °F 84% 30.30 in 10.0 mi WNW 3.5 mph - N/A   Clear
3:00 AM -14.8 °F -24.8 °F -18.4 °F 84% 30.30 in 10.0 mi West 3.5 mph - N/A   Clear
3:20 AM -14.8 °F -24.8 °F -18.4 °F 84% 30.30 in 10.0 mi WNW 3.5 mph - N/A   Clear
3:41 AM -14.8 °F - -18.4 °F 84% 30.31 in 10.0 mi Calm Calm - N/A   Clear
4:00 AM -16.6 °F -26.8 °F -20.2 °F 84% 30.31 in 10.0 mi West 3.5 mph - N/A   Clear
4:21 AM -14.8 °F -27.2 °F -20.2 °F 77% 30.31 in 10.0 mi WNW 4.6 mph - N/A   Clear
4:40 AM -16.6 °F - -20.2 °F 84% 30.32 in 10.0 mi Calm Calm - N/A   Clear
5:00 AM -16.6 °F -26.8 °F -20.2 °F 84% 30.31 in 10.0 mi West 3.5 mph - N/A   Clear
5:21 AM -16.6 °F -26.8 °F -20.2 °F 84% 30.32 in 10.0 mi West 3.5 mph - N/A   Clear
5:40 AM -14.8 °F -27.2 °F -20.2 °F 77% 30.32 in 10.0 mi WNW 4.6 mph - N/A   Clear
6:01 AM -14.8 °F -27.2 °F -18.4 °F 84% 30.32 in 10.0 mi NW 4.6 mph - N/A   Clear
6:20 AM -14.8 °F - -20.2 °F 77% 30.33 in 10.0 mi Calm Calm - N/A   Clear
6:40 AM -16.6 °F - -20.2 °F 84% 30.34 in 10.0 mi Calm Calm - N/A   Clear
7:00 AM -16.6 °F - -20.2 °F 84% 30.34 in 10.0 mi Calm Calm - N/A   Clear
7:20 AM -16.6 °F - -22.0 °F 76% 30.34 in 10.0 mi Calm Calm - N/A   Clear
7:40 AM -16.6 °F - -20.2 °F 84% 30.35 in 10.0 mi Calm Calm - N/A   Clear
8:00 AM -16.6 °F - -22.0 °F 76% 30.37 in 10.0 mi Calm Calm - N/A   Clear
8:21 AM -16.6 °F - -22.0 °F 76% 30.38 in 10.0 mi Calm Calm - N/A   Clear
8:40 AM -16.6 °F - -22.0 °F 76% 30.39 in 10.0 mi Calm Calm - N/A   Clear
9:00 AM -16.6 °F - -20.2 °F 84% 30.40 in 10.0 mi Calm Calm - N/A   Clear
9:20 AM -14.8 °F - -18.4 °F 84% 30.41 in 10.0 mi Calm Calm - N/A   Clear
9:40 AM -11.2 °F - -16.6 °F 77% 30.42 in 10.0 mi Calm Calm - N/A   Clear
10:00 AM -11.2 °F - -16.6 °F 77% 30.42 in 10.0 mi Calm Calm - N/A   Clear
10:20 AM -7.6 °F - -14.8 °F 71% 30.42 in 10.0 mi Calm Calm - N/A   Clear
10:40 AM -7.6 °F - -11.2 °F 84% 30.42 in 10.0 mi Calm Calm - N/A   Clear
11:00 AM -5.8 °F - -11.2 °F 77% 30.42 in 10.0 mi Calm Calm - N/A   Clear
11:21 AM -4.0 °F - -9.4 °F 78% 30.41 in 10.0 mi Calm Calm - N/A   Clear
11:40 AM -2.2 °F - -9.4 °F 71% 30.41 in 10.0 mi Calm Calm - N/A   Clear
12:00 PM -2.2 °F -10.4 °F -9.4 °F 71% 30.40 in 10.0 mi South 3.5 mph - N/A   Clear
12:20 PM -2.2 °F -10.4 °F -9.4 °F 71% 30.40 in 10.0 mi South 3.5 mph - N/A   Clear
12:40 PM -0.4 °F - -9.4 °F 66% 30.39 in 10.0 mi Calm Calm - N/A   Clear
1:00 PM -0.4 °F - -9.4 °F 66% 30.39 in 10.0 mi Calm Calm - N/A   Clear
1:20 PM -0.4 °F -10.4 °F -9.4 °F 66% 30.39 in 10.0 mi SSE 4.6 mph - N/A   Clear
1:40 PM -0.4 °F -10.4 °F -7.6 °F 72% 30.38 in 10.0 mi South 4.6 mph - N/A   Clear
2:00 PM -0.4 °F -10.4 °F -7.6 °F 72% 30.38 in 10.0 mi South 4.6 mph - N/A   Clear
2:20 PM -0.4 °F -8.3 °F -7.6 °F 72% 30.38 in 10.0 mi South 3.5 mph - N/A   Clear
2:40 PM -0.4 °F -12.0 °F -7.6 °F 72% 30.39 in 10.0 mi South 5.8 mph - N/A   Clear
3:00 PM -0.4 °F -12.0 °F -7.6 °F 72% 30.39 in 10.0 mi South 5.8 mph - N/A   Clear
3:20 PM -0.4 °F -13.4 °F -7.6 °F 72% 30.39 in 10.0 mi SSE 6.9 mph - N/A   Clear
3:40 PM -0.4 °F -13.4 °F -7.6 °F 72% 30.39 in 10.0 mi South 6.9 mph - N/A   Clear
4:00 PM -0.4 °F -14.7 °F -7.6 °F 72% 30.38 in 10.0 mi SSE 8.1 mph - N/A   Clear
4:20 PM -2.2 °F -16.8 °F -7.6 °F 78% 30.38 in 10.0 mi SSE 8.1 mph - N/A   Clear
4:40 PM -2.2 °F -15.6 °F -9.4 °F 71% 30.38 in 10.0 mi SE 6.9 mph - N/A   Clear
5:00 PM -5.8 °F -21.2 °F -9.4 °F 84% 30.37 in 10.0 mi SE 8.1 mph - N/A   Clear
5:20 PM -5.8 °F -21.2 °F -11.2 °F 77% 30.37 in 10.0 mi SE 8.1 mph - N/A   Clear
5:40 PM -5.8 °F -21.2 °F -11.2 °F 77% 30.36 in 10.0 mi SE 8.1 mph - N/A   Clear
6:00 PM -7.6 °F -22.1 °F -11.2 °F 84% 30.36 in 10.0 mi SSE 6.9 mph - N/A   Clear
6:20 PM -7.6 °F -23.4 °F -13.0 °F 77% 30.36 in 10.0 mi SE 8.1 mph - N/A   Clear
6:40 PM -7.6 °F -24.6 °F -13.0 °F 77% 30.36 in 10.0 mi SE 9.2 mph - N/A   Clear
7:00 PM -7.6 °F -24.6 °F -13.0 °F 77% 30.35 in 10.0 mi SE 9.2 mph - N/A   Scattered Clouds
7:20 PM -5.8 °F -24.4 °F -9.4 °F 84% 30.34 in 10.0 mi SE 11.5 mph - N/A   Mostly Cloudy
7:40 PM -4.0 °F -23.7 °F -7.6 °F 85% 30.34 in 10.0 mi SE 13.8 mph - N/A   Overcast
8:00 PM -2.2 °F -20.7 °F -7.6 °F 78% 30.34 in 10.0 mi SSE 12.7 mph - N/A   Overcast
8:20 PM -2.2 °F -23.5 °F -7.6 °F 78% 30.32 in 10.0 mi SE 17.3 mph - N/A   Overcast
8:40 PM -2.2 °F -22.9 °F -7.6 °F 78% 30.32 in 10.0 mi SSE 16.1 mph - N/A   Overcast
9:00 PM -2.2 °F -23.5 °F -7.6 °F 78% 30.32 in 10.0 mi SE 17.3 mph - N/A   Overcast
9:20 PM -0.4 °F -20.5 °F -5.8 °F 78% 30.32 in 10.0 mi SE 16.1 mph - N/A   Overcast
9:40 PM -0.4 °F -19.9 °F -5.8 °F 78% 30.31 in 10.0 mi SSE 15.0 mph 19.6 mph N/A   Overcast
10:00 PM -0.4 °F -20.5 °F -5.8 °F 78% 30.30 in 10.0 mi SE 16.1 mph - N/A   Overcast
10:20 PM 1.4 °F -19.4 °F -5.8 °F 72% 30.29 in 10.0 mi SSE 18.4 mph - N/A   Overcast
10:40 PM 1.4 °F -19.9 °F -4.0 °F 78% 30.28 in 10.0 mi SE 19.6 mph - N/A   Overcast
11:00 PM 1.4 °F -19.4 °F -4.0 °F 78% 30.27 in 10.0 mi SSE 18.4 mph - N/A   Overcast
11:20 PM 1.4 °F -19.9 °F -2.2 °F 85% 30.25 in 10.0 mi SE 19.6 mph - N/A   Overcast
11:40 PM 1.4 °F -19.4 °F -2.2 °F 85% 30.24 in 10.0 mi SSE 18.4 mph - N/A   Overcast